createdAt,value
2022-09-15T00:00:12.616Z,22.83
2022-09-15T00:02:39.432Z,19.83
2022-09-15T00:05:06.307Z,20.58
2022-09-15T00:07:32.905Z,25.45
2022-09-15T00:09:59.642Z,21.85
2022-09-15T00:12:27.668Z,22.10
2022-09-15T00:14:54.508Z,27.60
2022-09-15T00:17:21.442Z,20.92
2022-09-15T00:19:48.443Z,23.80
2022-09-15T00:22:15.302Z,23.10
2022-09-15T00:24:42.195Z,24.13
2022-09-15T00:27:08.914Z,22.95
2022-09-15T00:29:36.519Z,26.65
2022-09-15T00:32:03.826Z,27.23
2022-09-15T00:34:30.383Z,19.63
2022-09-15T00:36:57.108Z,18.92
2022-09-15T00:39:23.690Z,16.25
2022-09-15T00:41:50.402Z,20.33
2022-09-15T00:44:17.251Z,19.20
2022-09-15T00:47:04.258Z,18.98
2022-09-15T00:52:14.315Z,18.65
2022-09-15T00:54:55.152Z,23.33
2022-09-15T00:57:27.559Z,21.90
2022-09-15T00:59:56.747Z,18.95
2022-09-15T01:02:27.229Z,21.10
2022-09-15T01:04:58.397Z,19.08
2022-09-15T01:07:41.493Z,17.17
2022-09-15T01:10:14.408Z,18.92
2022-09-15T01:12:41.932Z,20.17
2022-09-15T01:15:09.298Z,24.85
2022-09-15T01:18:16.737Z,23.80
2022-09-15T01:21:05.033Z,23.52
2022-09-15T01:24:00.236Z,22.02
2022-09-15T01:26:43.182Z,18.92
2022-09-15T01:29:31.457Z,20.93
2022-09-15T01:32:27.392Z,20.60
2022-09-15T01:35:22.122Z,22.90
2022-09-15T01:38:04.489Z,16.23
2022-09-15T01:40:37.679Z,18.88
2022-09-15T01:43:06.604Z,19.52
2022-09-15T01:45:35.357Z,18.33
2022-09-15T01:48:05.409Z,19.55
2022-09-15T01:50:44.606Z,20.80
2022-09-15T01:53:17.732Z,19.35
2022-09-15T01:55:58.472Z,19.50
2022-09-15T01:58:25.254Z,18.08
2022-09-15T02:00:58.886Z,19.55
2022-09-15T02:06:02.926Z,19.15
2022-09-15T02:08:47.622Z,21.13
2022-09-15T02:11:19.558Z,20.13
2022-09-15T02:14:11.365Z,18.77
2022-09-15T02:16:41.941Z,19.05
2022-09-15T02:19:41.931Z,17.15
2022-09-15T02:22:28.189Z,19.70
2022-09-15T02:25:03.276Z,16.83
2022-09-15T02:27:41.674Z,21.35
2022-09-15T02:30:12.479Z,24.23
2022-09-15T02:32:47.265Z,22.13
2022-09-15T02:35:16.895Z,21.73
2022-09-15T02:37:44.432Z,24.08
2022-09-15T02:40:11.462Z,21.08
2022-09-15T02:42:39.290Z,22.90
2022-09-15T02:45:06.566Z,21.83
2022-09-15T02:47:35.978Z,27.42
2022-09-15T02:50:02.691Z,23.77
2022-09-15T02:52:29.447Z,27.70
2022-09-15T02:54:56.186Z,23.92
2022-09-15T02:57:23.596Z,23.60
2022-09-15T03:00:08.757Z,32.58
2022-09-15T03:02:35.644Z,28.65
2022-09-15T03:05:02.731Z,25.95
2022-09-15T03:07:30.195Z,23.77
2022-09-15T03:09:56.829Z,28.70
2022-09-15T03:12:23.679Z,28.63
2022-09-15T03:14:50.713Z,23.00
2022-09-15T03:17:18.902Z,23.02
2022-09-15T03:19:45.588Z,23.73
2022-09-15T03:22:15.360Z,26.05
2022-09-15T03:24:42.703Z,31.83
2022-09-15T03:27:09.446Z,27.23
2022-09-15T03:29:36.450Z,25.40
2022-09-15T03:32:03.120Z,27.58
2022-09-15T03:34:29.678Z,26.98
2022-09-15T03:36:56.227Z,29.42
2022-09-15T03:39:22.892Z,29.60
2022-09-15T03:41:49.730Z,22.83
2022-09-15T03:44:17.378Z,22.08
2022-09-15T03:46:44.048Z,24.38
2022-09-15T03:49:10.658Z,20.80
2022-09-15T03:51:37.221Z,24.65
2022-09-15T03:54:03.934Z,21.35
2022-09-15T03:56:32.861Z,28.95
2022-09-15T03:59:05.608Z,23.85
2022-09-15T04:01:33.019Z,21.98
2022-09-15T04:03:59.909Z,21.10
2022-09-15T04:06:26.813Z,25.42
2022-09-15T04:08:54.641Z,19.85
2022-09-15T04:11:23.177Z,19.45
2022-09-15T04:13:50.436Z,20.95
2022-09-15T04:16:19.659Z,19.45
2022-09-15T04:18:46.540Z,20.90
2022-09-15T04:21:16.234Z,19.77
2022-09-15T04:23:44.237Z,17.35
2022-09-15T04:26:19.522Z,20.73
2022-09-15T04:28:46.090Z,17.85
2022-09-15T04:31:15.044Z,17.38
2022-09-15T04:33:43.491Z,16.10
2022-09-15T04:36:21.028Z,21.65
2022-09-15T04:38:48.343Z,18.95
2022-09-15T04:41:15.383Z,22.50
2022-09-15T04:43:43.361Z,19.77
2022-09-15T04:46:11.025Z,21.48
2022-09-15T04:48:37.914Z,21.10
2022-09-15T04:51:07.203Z,22.90
2022-09-15T04:53:35.184Z,25.35
2022-09-15T04:56:07.674Z,19.35
2022-09-15T04:58:58.233Z,19.17
2022-09-15T05:01:30.400Z,17.73
2022-09-15T05:03:57.335Z,19.05
2022-09-15T05:06:27.346Z,20.52
2022-09-15T05:08:56.599Z,20.15
2022-09-15T05:11:24.960Z,21.33
2022-09-15T05:13:51.715Z,18.65
2022-09-15T05:16:22.030Z,23.50
2022-09-15T05:18:50.952Z,22.48
2022-09-15T05:21:20.485Z,18.75
2022-09-15T05:23:48.078Z,19.13
2022-09-15T05:26:17.653Z,20.02
2022-09-15T05:28:44.966Z,21.92
2022-09-15T05:31:24.187Z,24.50
2022-09-15T05:33:53.148Z,29.75
2022-09-15T05:36:23.789Z,27.45
2022-09-15T05:38:51.663Z,28.33
2022-09-15T05:41:19.301Z,26.13
2022-09-15T05:43:47.991Z,27.55
2022-09-15T05:46:16.286Z,29.58
2022-09-15T05:48:43.011Z,28.13
2022-09-15T05:51:09.614Z,20.63
2022-09-15T05:53:37.101Z,75.32
2022-09-15T05:56:10.702Z,37.28
2022-09-15T06:01:11.596Z,34.60
2022-09-15T06:03:38.146Z,24.23
2022-09-15T06:06:06.330Z,22.08
2022-09-15T06:08:34.820Z,20.80
2022-09-15T06:11:06.942Z,27.50
2022-09-15T06:13:35.519Z,22.40
2022-09-15T06:16:07.119Z,25.95
2022-09-15T06:18:36.237Z,25.65
2022-09-15T06:21:09.222Z,23.63
2022-09-15T06:23:37.045Z,28.20
2022-09-15T06:26:12.737Z,21.48
2022-09-15T06:28:42.250Z,18.58
2022-09-15T06:31:13.731Z,19.88
2022-09-15T06:33:45.769Z,24.67
2022-09-15T06:36:13.785Z,20.95
2022-09-15T06:38:41.380Z,16.42
2022-09-15T06:41:09.167Z,27.17
2022-09-15T06:43:36.443Z,19.52
2022-09-15T06:46:09.214Z,22.17
2022-09-15T06:48:36.984Z,23.65
2022-09-15T06:51:04.884Z,25.65
2022-09-15T06:53:33.148Z,22.73
2022-09-15T06:56:03.707Z,18.20
2022-09-15T06:58:31.189Z,36.53
2022-09-15T07:01:03.401Z,23.77
2022-09-15T07:03:30.710Z,21.20
2022-09-15T07:05:57.507Z,21.67
2022-09-15T07:08:24.174Z,20.95
2022-09-15T07:10:50.790Z,20.98
2022-09-15T07:13:17.737Z,26.35
2022-09-15T07:15:53.445Z,26.95
2022-09-15T07:18:20.266Z,22.50
2022-09-15T07:20:47.232Z,21.30
2022-09-15T07:23:16.184Z,21.05
2022-09-15T07:25:45.195Z,13.63
2022-09-15T07:28:15.231Z,17.10
2022-09-15T07:30:43.744Z,13.85
2022-09-15T07:33:13.398Z,13.38
2022-09-15T07:35:44.347Z,12.60
2022-09-15T07:38:12.894Z,19.95
2022-09-15T07:40:40.178Z,16.63
2022-09-15T07:43:06.756Z,14.68
2022-09-15T07:45:35.570Z,17.70
2022-09-15T07:48:02.642Z,11.60
2022-09-15T07:50:29.663Z,8.90
2022-09-15T07:53:00.423Z,11.88
2022-09-15T07:55:27.911Z,11.50
2022-09-15T07:57:59.390Z,13.35
2022-09-15T08:00:26.721Z,16.52
2022-09-15T08:02:53.845Z,16.02
2022-09-15T08:05:20.695Z,14.55
2022-09-15T08:07:47.642Z,10.60
2022-09-15T08:10:15.773Z,15.98
2022-09-15T08:12:42.494Z,15.98
2022-09-15T08:15:09.608Z,12.43
2022-09-15T08:17:36.338Z,14.32
2022-09-15T08:20:04.167Z,12.70
2022-09-15T08:22:30.853Z,10.45
2022-09-15T08:24:57.691Z,10.95
2022-09-15T08:27:24.523Z,10.00
2022-09-15T08:29:51.903Z,10.23
2022-09-15T08:32:19.002Z,14.00
2022-09-15T08:34:45.801Z,18.55
2022-09-15T08:37:12.702Z,14.10
2022-09-15T08:39:39.383Z,12.18
2022-09-15T08:42:06.538Z,13.88
2022-09-15T08:44:51.983Z,9.73
2022-09-15T08:47:31.942Z,11.23
2022-09-15T08:50:05.490Z,16.48
2022-09-15T08:55:25.333Z,11.95
2022-09-15T08:57:55.799Z,17.70
2022-09-15T09:00:26.974Z,17.80
2022-09-15T09:03:31.166Z,28.42
2022-09-15T09:06:19.952Z,14.88
2022-09-15T09:09:00.198Z,16.17
2022-09-15T09:11:51.939Z,11.20
2022-09-15T09:14:36.938Z,22.77
2022-09-15T09:17:18.618Z,9.10
2022-09-15T09:19:55.695Z,8.30
2022-09-15T09:22:31.677Z,6.05
2022-09-15T09:25:05.889Z,9.32
2022-09-15T09:27:43.433Z,22.80
2022-09-15T09:30:22.741Z,9.75
2022-09-15T09:33:04.933Z,8.35
2022-09-15T09:35:43.751Z,11.38
2022-09-15T09:38:12.482Z,6.68
2022-09-15T09:40:43.114Z,6.03
2022-09-15T09:43:10.880Z,10.43
2022-09-15T09:45:37.800Z,5.93
2022-09-15T09:48:20.403Z,7.15
2022-09-15T09:50:48.006Z,12.45
2022-09-15T09:53:34.286Z,9.20
2022-09-15T09:56:17.031Z,6.95
2022-09-15T09:58:44.816Z,8.50
2022-09-15T10:01:20.002Z,7.75
2022-09-15T10:03:47.455Z,10.35
2022-09-15T10:06:22.125Z,8.77
2022-09-15T10:08:53.445Z,14.13
2022-09-15T10:11:20.234Z,10.52
2022-09-15T10:13:53.398Z,9.18
2022-09-15T10:16:21.398Z,10.15
2022-09-15T10:18:54.291Z,9.88
2022-09-15T10:21:25.156Z,7.53
2022-09-15T10:23:52.276Z,7.28
2022-09-15T10:26:22.433Z,6.43
2022-09-15T10:29:13.247Z,6.18
2022-09-15T10:31:41.075Z,9.55
2022-09-15T10:34:27.809Z,7.10
2022-09-15T10:37:13.270Z,6.68
2022-09-15T10:39:52.699Z,6.43
2022-09-15T10:42:32.450Z,6.97
2022-09-15T10:45:24.077Z,11.05
2022-09-15T10:48:18.611Z,6.55
2022-09-15T10:50:55.053Z,6.82
2022-09-15T10:53:37.196Z,6.18
2022-09-15T10:56:19.688Z,7.18
2022-09-15T10:59:00.582Z,5.47
2022-09-15T11:01:30.244Z,6.85
2022-09-15T11:04:34.068Z,8.38
2022-09-15T11:07:09.798Z,5.82
2022-09-15T11:10:02.224Z,4.47
2022-09-15T11:12:55.425Z,6.70
2022-09-15T11:15:30.967Z,8.15
2022-09-15T11:18:19.495Z,3.85
2022-09-15T11:21:07.986Z,8.25
2022-09-15T11:23:40.140Z,8.35
2022-09-15T11:26:19.498Z,7.03
2022-09-15T11:28:57.948Z,3.83
2022-09-15T11:31:34.400Z,7.57
2022-09-15T11:34:14.848Z,6.57
2022-09-15T11:36:55.279Z,4.88
2022-09-15T11:39:36.576Z,20.17
2022-09-15T11:42:44.893Z,8.10
2022-09-15T11:45:20.323Z,7.93
2022-09-15T11:47:52.789Z,3.83
2022-09-15T11:50:24.873Z,7.40
2022-09-15T11:53:12.147Z,5.32
2022-09-15T11:55:47.971Z,6.90
2022-09-15T11:58:33.995Z,5.93
2022-09-15T12:01:22.561Z,3.90
2022-09-15T12:04:02.590Z,4.45
2022-09-15T12:06:51.186Z,6.07
2022-09-15T12:09:20.036Z,4.20
2022-09-15T12:11:49.675Z,5.55
2022-09-15T12:14:40.701Z,4.63
2022-09-15T12:17:13.489Z,5.03
2022-09-15T12:19:49.913Z,10.05
2022-09-15T12:22:24.069Z,6.80
2022-09-15T12:25:03.825Z,4.85
2022-09-15T12:27:30.521Z,4.68
2022-09-15T12:30:00.260Z,9.95
2022-09-15T12:32:28.747Z,9.07
2022-09-15T12:34:59.787Z,4.70
2022-09-15T12:37:34.396Z,3.50
2022-09-15T12:40:02.067Z,13.68
2022-09-15T12:42:31.395Z,6.97
2022-09-15T12:45:09.353Z,3.00
2022-09-15T12:47:40.622Z,3.65
2022-09-15T12:50:22.834Z,5.07
2022-09-15T12:53:14.617Z,4.65
2022-09-15T12:55:55.687Z,2.58
2022-09-15T12:58:33.212Z,5.05
2022-09-15T13:01:23.606Z,4.50
2022-09-15T13:03:50.827Z,4.55
2022-09-15T13:06:20.803Z,4.00
2022-09-15T13:08:47.390Z,4.20
2022-09-15T13:11:23.111Z,5.55
2022-09-15T13:13:58.745Z,4.40
2022-09-15T13:16:34.610Z,4.53
2022-09-15T13:19:14.003Z,5.65
2022-09-15T13:21:45.043Z,57.15
2022-09-15T13:24:21.591Z,5.47
2022-09-15T13:26:52.986Z,5.25
2022-09-15T13:29:21.098Z,4.65
2022-09-15T13:32:08.005Z,31.77
2022-09-15T13:35:13.205Z,4.25
2022-09-15T13:38:16.956Z,5.18
2022-09-15T13:41:23.470Z,8.13
2022-09-15T13:44:18.107Z,4.25
2022-09-15T13:47:10.632Z,3.30
2022-09-15T13:49:37.838Z,1.80
2022-09-15T13:52:22.155Z,3.38
2022-09-15T13:55:26.282Z,3.40
2022-09-15T14:01:05.825Z,5.30
2022-09-15T14:03:50.650Z,4.38
2022-09-15T14:06:30.213Z,6.18
2022-09-15T14:09:02.074Z,9.88
2022-09-15T14:11:31.330Z,5.63
2022-09-15T14:14:00.763Z,4.13
2022-09-15T14:16:29.876Z,4.20
2022-09-15T14:18:58.624Z,2.72
2022-09-15T14:21:33.906Z,6.32
2022-09-15T14:24:14.590Z,3.85
2022-09-15T14:26:41.427Z,8.25
2022-09-15T14:29:18.938Z,2.90
2022-09-15T14:31:45.793Z,6.13
2022-09-15T14:34:20.705Z,7.18
2022-09-15T14:37:04.332Z,5.53
2022-09-15T14:39:31.332Z,7.80
2022-09-15T14:47:28.898Z,5.85
2022-09-15T14:50:21.512Z,5.28
2022-09-15T14:53:08.636Z,5.43
2022-09-15T14:55:46.418Z,3.72
2022-09-15T14:58:20.966Z,3.70
2022-09-15T15:01:03.720Z,3.97
2022-09-15T15:03:56.560Z,9.20
2022-09-15T15:06:32.430Z,25.92
2022-09-15T15:09:21.566Z,20.77
2022-09-15T15:11:53.086Z,2.22
2022-09-15T15:14:19.993Z,3.67
2022-09-15T15:16:58.938Z,3.58
2022-09-15T15:19:40.733Z,4.35
2022-09-15T15:22:16.629Z,2.40
2022-09-15T15:24:46.207Z,5.60
2022-09-15T15:27:26.057Z,62.97
2022-09-15T15:29:52.883Z,8.23
2022-09-15T15:32:25.092Z,5.30
2022-09-15T15:35:00.842Z,3.78
2022-09-15T15:37:34.329Z,3.75
2022-09-15T15:42:29.492Z,6.38
2022-09-15T15:45:02.957Z,5.25
2022-09-15T15:50:14.062Z,7.07
2022-09-15T15:52:42.232Z,9.63
2022-09-15T15:55:13.732Z,6.63
2022-09-15T15:57:40.928Z,6.25
2022-09-15T16:00:16.620Z,4.50
2022-09-15T16:02:47.215Z,6.35
2022-09-15T16:05:14.422Z,44.90
2022-09-15T16:07:44.636Z,12.32
2022-09-15T16:10:19.416Z,7.13
2022-09-15T16:12:46.047Z,3.60
2022-09-15T16:15:18.527Z,4.68
2022-09-15T16:17:47.058Z,6.30
2022-09-15T16:20:19.632Z,5.13
2022-09-15T16:22:46.757Z,6.80
2022-09-15T16:25:15.925Z,7.63
2022-09-15T16:27:42.539Z,5.10
2022-09-15T16:30:12.014Z,9.25
2022-09-15T16:32:40.468Z,9.43
2022-09-15T16:35:39.939Z,6.72
2022-09-15T16:38:08.128Z,8.23
2022-09-15T16:40:36.980Z,8.40
2022-09-15T16:43:09.089Z,4.97
2022-09-15T16:45:40.526Z,6.18
2022-09-15T16:48:09.464Z,6.57
2022-09-15T16:50:37.828Z,10.07
2022-09-15T16:53:06.757Z,9.70
2022-09-15T16:55:48.530Z,8.77
2022-09-15T16:58:16.385Z,8.40
2022-09-15T17:00:45.191Z,5.30
2022-09-15T17:03:16.462Z,9.38
2022-09-15T17:05:49.973Z,13.23
2022-09-15T17:08:18.865Z,5.50
2022-09-15T17:10:46.970Z,9.68
2022-09-15T17:13:20.455Z,9.05
2022-09-15T17:18:15.572Z,7.50
2022-09-15T17:20:43.825Z,6.03
2022-09-15T17:23:28.594Z,8.05
2022-09-15T17:25:59.938Z,6.13
2022-09-15T17:28:31.702Z,8.55
2022-09-15T17:31:04.672Z,9.15
2022-09-15T17:33:32.762Z,10.75
2022-09-15T17:36:00.311Z,6.43
2022-09-15T17:38:27.169Z,9.63
2022-09-15T17:40:57.665Z,7.15
2022-09-15T17:43:27.352Z,5.82
2022-09-15T17:45:55.326Z,9.00
2022-09-15T17:48:22.567Z,8.52
2022-09-15T17:50:50.299Z,9.50
2022-09-15T17:53:26.887Z,10.23
2022-09-15T17:55:55.128Z,8.55
2022-09-15T17:58:23.391Z,8.80
2022-09-15T18:00:50.494Z,10.45
2022-09-15T18:03:29.000Z,12.05
2022-09-15T18:05:58.411Z,7.65
2022-09-15T18:08:25.977Z,9.15
2022-09-15T18:10:52.767Z,28.60
2022-09-15T18:13:22.187Z,7.30
2022-09-15T18:15:49.507Z,12.45
2022-09-15T18:18:21.405Z,12.15
2022-09-15T18:20:49.872Z,7.28
2022-09-15T18:23:18.781Z,8.00
2022-09-15T18:25:47.156Z,8.63
2022-09-15T18:28:15.422Z,9.75
2022-09-15T18:30:45.118Z,8.07
2022-09-15T18:33:20.304Z,6.68
2022-09-15T18:35:53.961Z,13.52
2022-09-15T18:40:53.295Z,10.02
2022-09-15T18:43:21.306Z,9.88
2022-09-15T18:45:48.380Z,13.05
2022-09-15T18:48:15.459Z,9.45
2022-09-15T18:50:44.662Z,7.38
2022-09-15T18:53:12.258Z,6.82
2022-09-15T18:55:42.076Z,10.85
2022-09-15T18:58:09.418Z,12.95
2022-09-15T19:00:36.163Z,7.18
2022-09-15T19:03:05.533Z,6.22
2022-09-15T19:05:32.488Z,8.80
2022-09-15T19:07:59.206Z,8.68
2022-09-15T19:10:26.816Z,13.10
2022-09-15T19:12:54.342Z,9.13
2022-09-15T19:15:24.518Z,9.93
2022-09-15T19:17:51.661Z,6.90
2022-09-15T19:20:18.619Z,5.60
2022-09-15T19:22:46.069Z,5.40
2022-09-15T19:25:13.445Z,7.15
2022-09-15T19:27:40.668Z,7.07
2022-09-15T19:30:09.960Z,9.20
2022-09-15T19:32:38.244Z,12.27
2022-09-15T19:35:05.367Z,9.82
2022-09-15T19:37:35.452Z,9.95
2022-09-15T19:40:03.509Z,10.10
2022-09-15T19:42:30.288Z,5.22
2022-09-15T19:44:57.267Z,14.38
2022-09-15T19:47:24.532Z,6.80
2022-09-15T19:49:52.018Z,9.93
2022-09-15T19:52:20.110Z,10.77
2022-09-15T19:54:47.796Z,7.47
2022-09-15T19:57:14.870Z,15.68
2022-09-15T19:59:41.638Z,14.90
2022-09-15T20:02:10.384Z,7.78
2022-09-15T20:04:38.970Z,8.90
2022-09-15T20:07:05.980Z,19.00
2022-09-15T20:09:33.275Z,8.63
2022-09-15T20:12:03.222Z,8.57
2022-09-15T20:14:31.498Z,12.00
2022-09-15T20:17:01.099Z,7.25
2022-09-15T20:19:28.656Z,10.07
2022-09-15T20:21:55.761Z,7.20
2022-09-15T20:24:23.894Z,8.32
2022-09-15T20:26:51.655Z,4.78
2022-09-15T20:29:19.435Z,10.25
2022-09-15T20:31:46.331Z,7.30
2022-09-15T20:34:13.092Z,6.65
2022-09-15T20:36:40.319Z,8.05
2022-09-15T20:39:13.467Z,8.23
2022-09-15T20:41:44.839Z,11.35
2022-09-15T20:44:11.855Z,10.68
2022-09-15T20:46:38.552Z,14.77
2022-09-15T20:49:08.395Z,9.63
2022-09-15T20:51:35.455Z,6.43
2022-09-15T20:54:04.936Z,15.15
2022-09-15T20:56:35.352Z,7.13
2022-09-15T20:59:04.469Z,10.82
2022-09-15T21:01:37.031Z,8.45
2022-09-15T21:04:05.146Z,5.70
2022-09-15T21:06:32.476Z,10.45
2022-09-15T21:09:00.146Z,6.53
2022-09-15T21:11:28.169Z,7.15
2022-09-15T21:13:55.947Z,7.40
2022-09-15T21:16:25.839Z,7.90
2022-09-15T21:18:53.209Z,5.18
2022-09-15T21:21:31.785Z,6.50
2022-09-15T21:24:03.584Z,5.93
2022-09-15T21:26:36.190Z,9.45
2022-09-15T21:29:02.894Z,6.28
2022-09-15T21:31:32.560Z,6.88
2022-09-15T21:34:00.171Z,10.48
2022-09-15T21:36:29.556Z,7.60
2022-09-15T21:38:59.445Z,12.68
2022-09-15T21:41:30.282Z,9.95
2022-09-15T21:43:59.034Z,7.70
2022-09-15T21:46:28.353Z,9.05
2022-09-15T21:48:57.599Z,9.73
2022-09-15T21:51:26.253Z,7.97
2022-09-15T21:53:54.405Z,6.07
2022-09-15T21:56:22.467Z,6.20
2022-09-15T21:58:49.383Z,9.48
2022-09-15T22:01:23.371Z,8.73
2022-09-15T22:03:55.925Z,8.55
2022-09-15T22:06:27.802Z,7.88
2022-09-15T22:08:55.376Z,8.18
2022-09-15T22:11:23.240Z,8.40
2022-09-15T22:13:50.769Z,8.40
2022-09-15T22:16:20.059Z,12.75
2022-09-15T22:18:47.577Z,9.15
2022-09-15T22:21:17.458Z,11.02
2022-09-15T22:23:45.597Z,7.55
2022-09-15T22:26:21.427Z,4.53
2022-09-15T22:28:48.535Z,8.70
2022-09-15T22:31:18.044Z,11.00
2022-09-15T22:33:45.459Z,10.00
2022-09-15T22:36:32.572Z,5.57
2022-09-15T22:39:06.689Z,9.07
2022-09-15T22:41:39.254Z,7.95
2022-09-15T22:44:07.394Z,7.80
2022-09-15T22:46:34.689Z,9.57
2022-09-15T22:49:02.236Z,4.82
2022-09-15T22:51:29.129Z,7.80
2022-09-15T22:53:56.881Z,9.10
2022-09-15T22:56:25.937Z,8.30
2022-09-15T22:58:53.152Z,8.93
2022-09-15T23:01:25.664Z,9.68
2022-09-15T23:04:02.510Z,7.47
2022-09-15T23:06:32.106Z,9.70
2022-09-15T23:09:03.456Z,7.70
2022-09-15T23:11:34.055Z,6.22
2022-09-15T23:14:00.759Z,8.90
2022-09-15T23:16:31.465Z,7.95
2022-09-15T23:18:58.489Z,6.93
2022-09-15T23:21:28.300Z,9.63
2022-09-15T23:23:55.139Z,6.80
2022-09-15T23:26:24.025Z,9.43
2022-09-15T23:28:50.840Z,10.00
2022-09-15T23:31:20.978Z,10.57
2022-09-15T23:33:48.345Z,11.13
2022-09-15T23:36:19.590Z,13.48
2022-09-15T23:38:47.757Z,7.57
2022-09-15T23:41:15.840Z,5.30
2022-09-15T23:43:42.557Z,5.85
2022-09-15T23:46:30.675Z,9.38
2022-09-15T23:49:24.858Z,11.23
2022-09-15T23:52:31.268Z,6.97
2022-09-15T23:55:13.069Z,11.68
2022-09-15T23:57:48.104Z,7.93
